Ana Sayfa
METAR-TAF:

METAR-TAF

Havaalanları :

Wallops Flight Facility

Wallops Island, Virginia, Amerika Birleşik Devletleri

Enlem: 37-56-26N, Boylam: 075-27-47W, yükseklik: 12 m

Güncel hava durumu gözlemi

Rapor saat 03:24 UTC de 22 dakika önce yapıldı.
Rüzgar kuzey/kuzeydoğudan 9 kt
Sıcaklık 26°C
Nem 89%
Basınç 1019 hPa
Görüş mesafesi: 16.1 km
700 ft yükseklikte parçalı çok bulutlu
5000 ft yükseklikte parçalı çok bulutlu
12000 ft yükseklikte parçalı çok bulutlu
hafif yağmur

METAR: KWAL 070324Z AUTO 02009KT 10SM -RA BKN007 BKN050 BKN120 26/24 A3008 RMK AO2 LTG DSNT W-NE P0000 T02560244

Saat: 23:46 (03:46 UTC)


TAF: eksik

4.000'den fazla havaalanı için hava durumu gözlemleri ve tahminleri (METAR ve TAF raporları).

Kullanılabilir istasyonlar harita üzerinde sarı ve kırmızı noktalarla gösterilir.

İstasyonun adını görmek için fareyi noktanın üzerinde gezdirin.

Sonrasında hava gözlem ve tahminlerini görmek için tıklayın.

Haritayı değiştirmek için: yaklaştırmak için siyah artı işaretli yeşil düğmeye ve uzaklaştırmak için de eksi işaretli düğmeye hızla tıklayın; bitişik haritalar için yeşil okları kullanın.


METAR-TAF: